1891 NOT_NAMED (1891263N17124)


IBTrACS version v04r00. Visit IBTrACS website for data access.
Please direct all questions to the IBTrACS Q and A forum

Storm track - Intensity - Wind Radii - Intensity Data - Source Data - All data

Summary Information

Storm ID 1891263N17124
Start Sep 20 04Z
Landfall Sep 23 03Z
End Sep 24 16Z
ATCF IDs
Track status Best track data.

Storm track plot

Map of storm track

Intensity plots

No Intensity information for this storm


Radial wind information

No radial wind information for this storm


Position and Intensity Table

BASIN ISO_TIME_________ NATURE LAT LON
degrees north degrees east
WP 1891-09-20 04:00:00 NR 17.10 123.80
WP 06:00:00 NR 17.30 123.56
WP 09:00:00 NR 17.60 123.19
WP 12:00:00 NR 17.90 122.84
WP 15:00:00 NR 18.20 122.51
WP 16:00:00 NR 18.30 122.40
WP 18:00:00 NR 18.50 122.20
WP 21:00:00 NR 18.80 121.90
WP 1891-09-21 00:00:00 NR 19.08 121.61
WP 03:00:00 NR 19.33 121.31
WP 04:00:00 NR 19.40 121.20
WP 06:00:00 NR 19.52 120.98
WP 09:00:00 NR 19.67 120.63
WP 12:00:00 NR 19.80 120.25
WP 15:00:00 NR 19.95 119.85
WP 16:00:00 NR 20.00 119.70
WP 18:00:00 NR 20.13 119.37
WP 21:00:00 NR 20.35 118.85
WP 1891-09-22 00:00:00 NR 20.58 118.32
WP 03:00:00 NR 20.82 117.84
WP 04:00:00 NR 20.90 117.70
WP 06:00:00 NR 21.04 117.47
WP 09:00:00 NR 21.26 117.18
WP 12:00:00 NR 21.48 116.92
WP 15:00:00 NR 21.72 116.68
WP 16:00:00 NR 21.80 116.60
WP 18:00:00 NR 21.93 116.33
WP 21:00:00 NR 22.14 115.91
WP 1891-09-23 00:00:00 NR 22.40 115.56
WP 03:00:00 NR 22.75 115.40
WP 04:00:00 NR 22.90 115.40
WP 06:00:00 NR 23.29 115.51
WP 09:00:00 NR 23.97 115.86
WP 12:00:00 NR 24.70 116.40
WP 15:00:00 NR 25.39 117.06
WP 16:00:00 NR 25.60 117.30
WP 18:00:00 NR 25.94 117.76
WP 21:00:00 NR 26.38 118.52
WP 1891-09-24 00:00:00 NR 26.75 119.33
WP 03:00:00 NR 27.09 120.14
WP 04:00:00 NR 27.20 120.40
WP 06:00:00 NR 27.42 120.90
WP 09:00:00 NR 27.74 121.59
WP 12:00:00 NR 28.07 122.25
WP 15:00:00 NR 28.39 122.89
WP 16:00:00 NR 28.50 123.10

Source Information

Agency Information
USA
TOKYO
CMA
HKO
NEWDELHI
REUNION
BOM
NADI
WELLINGTON
DS824
TD9636 cons_worldwide_trop_cyclone_18710101-19891231-003:Line=909
TD9635
NEUMANN
MLC

All available IBTrACS Data

SEASON BASIN SUBBASIN ISO_TIME_________ NATURE LAT LON DIST2LAND LANDFALL IFLAG USA SSHS TD9636 LAT TD9636 LON TD9636 STAGE STORM SPEED STORM DIR
Year degrees north degrees east km km 1 degrees north degrees east kts degrees
1891 WP MM 1891-09-20 04:00:00 NR 17.10 123.80 138 119 __________O___ -1 17.10 123.80 7 9 311
1891 WP MM 06:00:00 NR 17.30 123.56 121 91 __________P___ -1 17.30 123.56 7 9 311
1891 WP MM 09:00:00 NR 17.60 123.19 91 67 __________P___ -1 17.60 123.19 7 9 311
1891 WP MM 12:00:00 NR 17.90 122.84 67 23 __________P___ -1 17.90 122.84 7 9 313
1891 WP MM 15:00:00 NR 18.20 122.51 23 10 __________P___ -1 18.20 122.51 7 9 314
1891 WP MM 16:00:00 NR 18.30 122.40 10 0 __________O___ -1 18.30 122.40 4 8 316
1891 WP MM 18:00:00 NR 18.50 122.20 11 11 __________P___ -1 18.50 122.20 4 8 317
1891 WP MM 21:00:00 NR 18.80 121.90 49 49 __________P___ -1 18.80 121.90 4 8 316
1891 WP MM 1891-09-21 00:00:00 NR 19.08 121.61 70 67 __________P___ -1 19.08 121.61 4 8 313
1891 WP MM 03:00:00 NR 19.33 121.31 88 88 __________P___ -1 19.33 121.31 4 8 310
1891 WP MM 04:00:00 NR 19.40 121.20 94 91 __________O___ -1 19.40 121.20 4 7 302
1891 WP MM 06:00:00 NR 19.52 120.98 101 100 __________P___ -1 19.52 120.98 4 7 297
1891 WP MM 09:00:00 NR 19.67 120.63 124 124 __________P___ -1 19.67 120.63 4 7 292
1891 WP MM 12:00:00 NR 19.80 120.25 144 148 __________P___ -1 19.80 120.25 4 8 291
1891 WP MM 15:00:00 NR 19.95 119.85 179 188 __________P___ -1 19.95 119.85 4 8 291
1891 WP MM 16:00:00 NR 20.00 119.70 194 194 __________O___ -1 20.00 119.70 4 10 293
1891 WP MM 18:00:00 NR 20.13 119.37 222 230 __________P___ -1 20.13 119.37 4 11 294
1891 WP MM 21:00:00 NR 20.35 118.85 258 258 __________P___ -1 20.35 118.85 4 11 295
1891 WP MM 1891-09-22 00:00:00 NR 20.58 118.32 288 270 __________P___ -1 20.58 118.32 4 11 297
1891 WP MM 03:00:00 NR 20.82 117.84 270 255 __________P___ -1 20.82 117.84 4 10 298
1891 WP MM 04:00:00 NR 20.90 117.70 255 236 __________O___ -1 20.90 117.70 4 8 302
1891 WP MM 06:00:00 NR 21.04 117.47 236 192 __________P___ -1 21.04 117.47 4 7 306
1891 WP MM 09:00:00 NR 21.26 117.18 192 161 __________P___ -1 21.26 117.18 4 7 311
1891 WP MM 12:00:00 NR 21.48 116.92 161 135 __________P___ -1 21.48 116.92 4 6 315
1891 WP MM 15:00:00 NR 21.72 116.68 135 123 __________P___ -1 21.72 116.68 4 7 316
1891 WP MM 16:00:00 NR 21.80 116.60 123 102 __________O___ -1 21.80 116.60 4 8 302
1891 WP MM 18:00:00 NR 21.93 116.33 102 67 __________P___ -1 21.93 116.33 4 9 298
1891 WP MM 21:00:00 NR 22.14 115.91 67 33 __________P___ -1 22.14 115.91 4 8 303
1891 WP MM 1891-09-23 00:00:00 NR 22.40 115.56 33 0 __________P___ -1 22.40 115.56 4 8 323
1891 WP MM 03:00:00 NR 22.75 115.40 0 0 __________P___ -1 22.75 115.40 4 8 343
1891 WP MM 04:00:00 NR 22.90 115.40 0 0 __________O___ -1 22.90 115.40 4 11 10
1891 WP MM 06:00:00 NR 23.29 115.51 0 0 __________P___ -1 23.29 115.51 4 14 22
1891 WP MM 09:00:00 NR 23.97 115.86 0 0 __________P___ -1 23.97 115.86 4 16 30
1891 WP MM 12:00:00 NR 24.70 116.40 0 0 __________P___ -1 24.70 116.40 4 18 37
1891 WP MM 15:00:00 NR 25.39 117.06 0 0 __________P___ -1 25.39 117.06 4 18 42
1891 WP MM 16:00:00 NR 25.60 117.30 0 0 __________O___ -1 25.60 117.30 4 17 49
1891 WP MM 18:00:00 NR 25.94 117.76 0 0 __________P___ -1 25.94 117.76 4 16 55
1891 WP MM 21:00:00 NR 26.38 118.52 0 0 __________P___ -1 26.38 118.52 4 16 60
1891 WP MM 1891-09-24 00:00:00 NR 26.75 119.33 0 0 __________P___ -1 26.75 119.33 4 16 64
1891 WP MM 03:00:00 NR 27.09 120.14 0 0 __________P___ -1 27.09 120.14 4 16 65
1891 WP MM 04:00:00 NR 27.20 120.40 0 0 __________O___ -1 27.20 120.40 4 15 64
1891 WP MM 06:00:00 NR 27.42 120.90 22 22 __________P___ -1 27.42 120.90 4 14 63
1891 WP MM 09:00:00 NR 27.74 121.59 53 44 __________P___ -1 27.74 121.59 4 14 62
1891 WP MM 12:00:00 NR 28.07 122.25 72 72 __________P___ -1 28.07 122.25 4 13 60
1891 WP MM 15:00:00 NR 28.39 122.89 121 121 __________P___ -1 28.39 122.89 4 13 60
1891 WP MM 16:00:00 NR 28.50 123.10 132 __________O___ -1 28.50 123.10 4 13 60